Swan Station, North Carolina
Current Conditions -  °F | °C
As of 1:15 PM on Wednesday 28 Jan 2015 (Local Time) from KTTA Reporting Station
Clear Clear  
Wind Chill: 39°   Ceiling: Unl
Heat Index: 43°   Visibility: 10mi
Dew Point: 14°   Wind: 7mph
Humidity: 31%   Direction: 10°N
Pressure: 30.23"   Gusts: NA
Location:  35.493°N, 79.1765°W
Report Text: KTTA 281815Z AUTO 01006KT 10SM CLR 06/M10 A3023 RMK AO2 T00621098
Loading
Personal Weather Stations






























Interactive Weather Map New forecast layout! Learn more

10-Day Weather Forecast

Advertisements
Track Severe Weather on mobile